sensor_id;sensor_type;location;lat;lon;timestamp;pressure;altitude;pressure_sealevel;temperature;humidity
54465;BME280;40374;49.480;20.016;2023-06-22T00:01:21;95218.41;;;18.95;100.00
54465;BME280;40374;49.480;20.016;2023-06-22T00:03:52;95210.31;;;18.69;100.00
54465;BME280;40374;49.480;20.016;2023-06-22T00:06:19;95233.84;;;18.74;100.00
54465;BME280;40374;49.480;20.016;2023-06-22T00:08:47;95227.91;;;18.72;100.00
54465;BME280;40374;49.480;20.016;2023-06-22T00:11:14;95244.44;;;18.84;100.00
54465;BME280;40374;49.480;20.016;2023-06-22T00:13:42;95228.41;;;18.74;100.00
54465;BME280;40374;49.480;20.016;2023-06-22T00:16:09;95240.41;;;18.73;100.00
54465;BME280;40374;49.480;20.016;2023-06-22T00:18:37;95229.38;;;18.60;100.00
54465;BME280;40374;49.480;20.016;2023-06-22T00:21:04;95227.19;;;18.45;100.00
54465;BME280;40374;49.480;20.016;2023-06-22T00:23:32;95247.22;;;18.32;100.00
54465;BME280;40374;49.480;20.016;2023-06-22T00:26:01;95239.53;;;18.34;100.00
54465;BME280;40374;49.480;20.016;2023-06-22T00:28:29;95240.97;;;18.22;100.00
54465;BME280;40374;49.480;20.016;2023-06-22T00:30:57;95225.91;;;18.34;100.00
54465;BME280;40374;49.480;20.016;2023-06-22T00:33:25;95231.03;;;18.26;100.00
54465;BME280;40374;49.480;20.016;2023-06-22T00:35:53;95231.72;;;18.15;100.00
54465;BME280;40374;49.480;20.016;2023-06-22T00:38:21;95216.47;;;18.22;100.00
54465;BME280;40374;49.480;20.016;2023-06-22T00:40:48;95220.31;;;18.30;100.00
54465;BME280;40374;49.480;20.016;2023-06-22T00:43:16;95219.47;;;18.47;100.00
54465;BME280;40374;49.480;20.016;2023-06-22T00:45:43;95227.34;;;18.49;100.00
54465;BME280;40374;49.480;20.016;2023-06-22T00:48:11;95228.34;;;18.35;100.00
54465;BME280;40374;49.480;20.016;2023-06-22T00:50:39;95233.75;;;18.26;100.00
54465;BME280;40374;49.480;20.016;2023-06-22T00:53:08;95235.69;;;18.35;100.00
54465;BME280;40374;49.480;20.016;2023-06-22T00:55:42;95227.50;;;18.52;100.00
54465;BME280;40374;49.480;20.016;2023-06-22T00:58:14;95223.03;;;18.39;100.00
54465;BME280;40374;49.480;20.016;2023-06-22T01:00:42;95231.84;;;18.27;100.00
54465;BME280;40374;49.480;20.016;2023-06-22T01:03:10;95240.34;;;18.25;100.00
54465;BME280;40374;49.480;20.016;2023-06-22T01:05:39;95222.09;;;18.17;100.00
54465;BME280;40374;49.480;20.016;2023-06-22T01:11:12;95221.13;;;18.13;100.00
54465;BME280;40374;49.480;20.016;2023-06-22T01:16:28;95228.34;;;18.35;100.00
54465;BME280;40374;49.480;20.016;2023-06-22T01:19:00;95213.88;;;18.35;100.00
54465;BME280;40374;49.480;20.016;2023-06-22T01:21:31;95223.78;;;18.65;100.00
54465;BME280;40374;49.480;20.016;2023-06-22T01:24:23;95216.22;;;18.71;100.00
54465;BME280;40374;49.480;20.016;2023-06-22T01:29:56;95207.63;;;18.43;100.00
54465;BME280;40374;49.480;20.016;2023-06-22T01:32:33;95200.28;;;18.35;100.00
54465;BME280;40374;49.480;20.016;2023-06-22T01:35:05;95206.53;;;18.26;100.00
54465;BME280;40374;49.480;20.016;2023-06-22T01:37:34;95206.81;;;18.51;100.00
54465;BME280;40374;49.480;20.016;2023-06-22T01:40:04;95198.16;;;18.49;100.00
54465;BME280;40374;49.480;20.016;2023-06-22T01:42:33;95180.09;;;18.36;100.00
54465;BME280;40374;49.480;20.016;2023-06-22T01:45:02;95184.28;;;18.33;100.00
54465;BME280;40374;49.480;20.016;2023-06-22T01:47:30;95190.72;;;18.84;100.00
54465;BME280;40374;49.480;20.016;2023-06-22T01:49:58;95191.09;;;18.57;100.00
54465;BME280;40374;49.480;20.016;2023-06-22T01:52:26;95204.28;;;18.46;100.00
54465;BME280;40374;49.480;20.016;2023-06-22T01:54:56;95191.97;;;18.31;100.00
54465;BME280;40374;49.480;20.016;2023-06-22T01:57:25;95201.06;;;18.44;100.00
54465;BME280;40374;49.480;20.016;2023-06-22T02:00:00;95207.13;;;18.50;100.00
54465;BME280;40374;49.480;20.016;2023-06-22T02:02:32;95210.19;;;18.48;100.00
54465;BME280;40374;49.480;20.016;2023-06-22T02:05:06;95209.75;;;18.37;100.00
54465;BME280;40374;49.480;20.016;2023-06-22T02:07:41;95207.66;;;18.25;100.00
54465;BME280;40374;49.480;20.016;2023-06-22T02:10:14;95214.84;;;18.39;100.00
54465;BME280;40374;49.480;20.016;2023-06-22T02:12:43;95216.00;;;18.20;100.00
54465;BME280;40374;49.480;20.016;2023-06-22T02:15:11;95219.66;;;18.24;100.00
54465;BME280;40374;49.480;20.016;2023-06-22T02:17:40;95206.88;;;18.25;100.00
54465;BME280;40374;49.480;20.016;2023-06-22T02:20:15;95220.97;;;18.27;100.00
54465;BME280;40374;49.480;20.016;2023-06-22T02:22:42;95219.50;;;18.38;100.00
54465;BME280;40374;49.480;20.016;2023-06-22T02:25:11;95217.59;;;18.21;100.00
54465;BME280;40374;49.480;20.016;2023-06-22T02:27:38;95215.84;;;18.17;100.00
54465;BME280;40374;49.480;20.016;2023-06-22T02:30:09;95225.13;;;18.07;100.00
54465;BME280;40374;49.480;20.016;2023-06-22T02:32:38;95220.97;;;17.92;100.00
54465;BME280;40374;49.480;20.016;2023-06-22T02:35:09;95243.53;;;17.93;100.00
54465;BME280;40374;49.480;20.016;2023-06-22T02:37:37;95235.72;;;17.91;100.00
54465;BME280;40374;49.480;20.016;2023-06-22T02:40:11;95243.72;;;18.05;100.00
54465;BME280;40374;49.480;20.016;2023-06-22T02:42:39;95236.47;;;18.26;100.00
54465;BME280;40374;49.480;20.016;2023-06-22T02:45:08;95235.22;;;18.15;100.00
54465;BME280;40374;49.480;20.016;2023-06-22T02:57:25;95231.69;;;19.05;100.00
54465;BME280;40374;49.480;20.016;2023-06-22T02:59:53;95236.44;;;19.17;100.00
54465;BME280;40374;49.480;20.016;2023-06-22T03:02:22;95242.84;;;19.21;100.00
54465;BME280;40374;49.480;20.016;2023-06-22T03:04:49;95256.72;;;19.37;100.00
54465;BME280;40374;49.480;20.016;2023-06-22T03:07:17;95243.16;;;19.20;100.00
54465;BME280;40374;49.480;20.016;2023-06-22T03:09:45;95239.84;;;19.05;100.00
54465;BME280;40374;49.480;20.016;2023-06-22T03:12:13;95252.91;;;18.91;100.00
54465;BME280;40374;49.480;20.016;2023-06-22T03:14:50;95252.00;;;19.17;100.00
54465;BME280;40374;49.480;20.016;2023-06-22T03:17:18;95243.34;;;19.15;100.00
54465;BME280;40374;49.480;20.016;2023-06-22T03:19:45;95252.63;;;19.22;100.00
54465;BME280;40374;49.480;20.016;2023-06-22T03:22:12;95262.19;;;18.99;100.00
54465;BME280;40374;49.480;20.016;2023-06-22T03:24:44;95264.75;;;18.95;100.00
54465;BME280;40374;49.480;20.016;2023-06-22T03:27:11;95266.94;;;19.11;100.00
54465;BME280;40374;49.480;20.016;2023-06-22T03:29:40;95259.69;;;19.15;100.00
54465;BME280;40374;49.480;20.016;2023-06-22T03:32:07;95267.41;;;19.13;100.00
54465;BME280;40374;49.480;20.016;2023-06-22T03:34:35;95272.72;;;19.09;100.00
54465;BME280;40374;49.480;20.016;2023-06-22T03:37:05;95271.56;;;19.19;100.00
54465;BME280;40374;49.480;20.016;2023-06-22T03:39:32;95274.38;;;19.31;100.00
54465;BME280;40374;49.480;20.016;2023-06-22T03:42:00;95265.94;;;19.54;100.00
54465;BME280;40374;49.480;20.016;2023-06-22T03:44:27;95268.91;;;19.01;100.00
54465;BME280;40374;49.480;20.016;2023-06-22T03:46:55;95261.09;;;18.74;100.00
54465;BME280;40374;49.480;20.016;2023-06-22T03:49:22;95263.94;;;18.95;100.00
54465;BME280;40374;49.480;20.016;2023-06-22T03:51:49;95279.50;;;18.85;100.00
54465;BME280;40374;49.480;20.016;2023-06-22T03:54:17;95278.06;;;18.71;100.00
54465;BME280;40374;49.480;20.016;2023-06-22T03:56:44;95275.63;;;19.04;100.00
54465;BME280;40374;49.480;20.016;2023-06-22T03:59:12;95276.84;;;19.24;100.00
54465;BME280;40374;49.480;20.016;2023-06-22T04:01:39;95270.06;;;19.30;100.00
54465;BME280;40374;49.480;20.016;2023-06-22T04:04:07;95289.44;;;19.37;100.00
54465;BME280;40374;49.480;20.016;2023-06-22T04:06:34;95292.28;;;19.50;100.00
54465;BME280;40374;49.480;20.016;2023-06-22T04:09:02;95284.63;;;19.43;100.00
54465;BME280;40374;49.480;20.016;2023-06-22T04:11:30;95287.09;;;19.57;100.00
54465;BME280;40374;49.480;20.016;2023-06-22T04:13:57;95279.69;;;19.66;100.00
54465;BME280;40374;49.480;20.016;2023-06-22T04:16:24;95275.72;;;19.55;100.00
54465;BME280;40374;49.480;20.016;2023-06-22T04:18:52;95277.50;;;19.51;100.00
54465;BME280;40374;49.480;20.016;2023-06-22T04:21:20;95277.50;;;19.51;100.00
54465;BME280;40374;49.480;20.016;2023-06-22T04:23:47;95274.53;;;19.64;100.00
54465;BME280;40374;49.480;20.016;2023-06-22T04:26:15;95272.75;;;19.68;100.00
54465;BME280;40374;49.480;20.016;2023-06-22T04:28:42;95279.59;;;19.83;100.00
54465;BME280;40374;49.480;20.016;2023-06-22T04:31:10;95288.94;;;19.82;100.00
54465;BME280;40374;49.480;20.016;2023-06-22T04:33:38;95291.34;;;20.05;100.00
54465;BME280;40374;49.480;20.016;2023-06-22T04:36:07;95287.19;;;19.99;100.00
54465;BME280;40374;49.480;20.016;2023-06-22T04:38:35;95279.00;;;20.20;100.00
54465;BME280;40374;49.480;20.016;2023-06-22T04:41:02;95294.13;;;20.38;100.00
54465;BME280;40374;49.480;20.016;2023-06-22T04:43:30;95289.75;;;20.46;100.00
54465;BME280;40374;49.480;20.016;2023-06-22T04:45:58;95285.44;;;20.57;100.00
54465;BME280;40374;49.480;20.016;2023-06-22T04:48:30;95282.16;;;20.52;100.00
54465;BME280;40374;49.480;20.016;2023-06-22T04:51:01;95288.16;;;20.78;100.00
54465;BME280;40374;49.480;20.016;2023-06-22T04:53:32;95283.31;;;20.84;100.00
54465;BME280;40374;49.480;20.016;2023-06-22T04:55:59;95281.53;;;21.00;100.00
54465;BME280;40374;49.480;20.016;2023-06-22T04:58:27;95286.88;;;20.97;100.00
54465;BME280;40374;49.480;20.016;2023-06-22T05:00:55;95275.69;;;21.02;100.00
54465;BME280;40374;49.480;20.016;2023-06-22T05:03:25;95280.38;;;21.01;100.00
54465;BME280;40374;49.480;20.016;2023-06-22T05:05:53;95281.19;;;21.14;100.00
54465;BME280;40374;49.480;20.016;2023-06-22T05:08:21;95277.00;;;21.29;100.00
54465;BME280;40374;49.480;20.016;2023-06-22T05:10:48;95291.19;;;21.43;100.00
54465;BME280;40374;49.480;20.016;2023-06-22T05:13:31;95296.06;;;21.38;100.00
54465;BME280;40374;49.480;20.016;2023-06-22T05:15:59;95291.88;;;21.53;100.00
54465;BME280;40374;49.480;20.016;2023-06-22T05:18:30;95289.81;;;21.62;100.00
54465;BME280;40374;49.480;20.016;2023-06-22T05:20:58;95294.84;;;21.72;100.00
54465;BME280;40374;49.480;20.016;2023-06-22T05:23:27;95280.47;;;21.63;100.00
54465;BME280;40374;49.480;20.016;2023-06-22T05:25:54;95293.22;;;21.71;100.00
54465;BME280;40374;49.480;20.016;2023-06-22T05:28:25;95314.78;;;21.73;100.00
54465;BME280;40374;49.480;20.016;2023-06-22T05:30:52;95302.81;;;21.77;100.00
54465;BME280;40374;49.480;20.016;2023-06-22T05:33:20;95313.22;;;21.84;100.00
54465;BME280;40374;49.480;20.016;2023-06-22T05:35:47;95316.03;;;22.00;100.00
54465;BME280;40374;49.480;20.016;2023-06-22T05:38:15;95313.63;;;22.10;100.00
54465;BME280;40374;49.480;20.016;2023-06-22T05:40:42;95309.38;;;22.38;100.00
54465;BME280;40374;49.480;20.016;2023-06-22T05:43:09;95310.28;;;22.42;100.00
54465;BME280;40374;49.480;20.016;2023-06-22T05:45:37;95314.50;;;22.39;100.00
54465;BME280;40374;49.480;20.016;2023-06-22T05:48:05;95306.69;;;22.54;100.00
54465;BME280;40374;49.480;20.016;2023-06-22T05:50:32;95306.53;;;22.22;100.00
54465;BME280;40374;49.480;20.016;2023-06-22T05:53:00;95304.59;;;22.22;100.00
54465;BME280;40374;49.480;20.016;2023-06-22T05:55:27;95302.19;;;22.33;100.00
54465;BME280;40374;49.480;20.016;2023-06-22T05:57:55;95294.91;;;22.53;100.00
54465;BME280;40374;49.480;20.016;2023-06-22T06:00:22;95292.66;;;22.99;100.00
54465;BME280;40374;49.480;20.016;2023-06-22T06:02:51;95296.19;;;23.28;100.00
54465;BME280;40374;49.480;20.016;2023-06-22T06:05:18;95300.88;;;23.27;100.00
54465;BME280;40374;49.480;20.016;2023-06-22T06:07:46;95298.06;;;23.40;100.00
54465;BME280;40374;49.480;20.016;2023-06-22T06:10:14;95295.13;;;23.64;100.00
54465;BME280;40374;49.480;20.016;2023-06-22T06:12:41;95304.69;;;23.86;100.00
54465;BME280;40374;49.480;20.016;2023-06-22T06:15:09;95303.38;;;23.96;100.00
54465;BME280;40374;49.480;20.016;2023-06-22T06:17:51;95297.72;;;24.08;100.00
54465;BME280;40374;49.480;20.016;2023-06-22T06:20:24;95295.31;;;24.23;100.00
54465;BME280;40374;49.480;20.016;2023-06-22T06:22:54;95298.44;;;24.21;100.00
54465;BME280;40374;49.480;20.016;2023-06-22T06:25:22;95300.47;;;24.08;100.00
54465;BME280;40374;49.480;20.016;2023-06-22T06:27:51;95304.28;;;24.20;100.00
54465;BME280;40374;49.480;20.016;2023-06-22T06:30:20;95306.09;;;24.31;100.00
54465;BME280;40374;49.480;20.016;2023-06-22T06:32:49;95306.63;;;24.37;100.00
54465;BME280;40374;49.480;20.016;2023-06-22T06:35:17;95316.66;;;24.29;100.00
54465;BME280;40374;49.480;20.016;2023-06-22T06:37:48;95317.03;;;24.47;100.00
54465;BME280;40374;49.480;20.016;2023-06-22T06:40:17;95313.19;;;24.33;100.00
54465;BME280;40374;49.480;20.016;2023-06-22T06:42:47;95300.00;;;24.22;100.00
54465;BME280;40374;49.480;20.016;2023-06-22T06:45:20;95290.28;;;24.44;100.00
54465;BME280;40374;49.480;20.016;2023-06-22T06:47:52;95305.63;;;24.65;100.00
54465;BME280;40374;49.480;20.016;2023-06-22T06:50:21;95296.75;;;24.52;100.00
54465;BME280;40374;49.480;20.016;2023-06-22T06:52:49;95300.03;;;24.42;100.00
54465;BME280;40374;49.480;20.016;2023-06-22T06:55:20;95302.78;;;24.42;100.00
54465;BME280;40374;49.480;20.016;2023-06-22T06:57:48;95300.75;;;24.39;100.00
54465;BME280;40374;49.480;20.016;2023-06-22T07:00:17;95307.31;;;24.50;100.00
54465;BME280;40374;49.480;20.016;2023-06-22T07:02:46;95311.22;;;24.68;100.00
54465;BME280;40374;49.480;20.016;2023-06-22T07:05:15;95311.66;;;24.70;100.00
54465;BME280;40374;49.480;20.016;2023-06-22T07:07:43;95312.72;;;24.85;100.00
54465;BME280;40374;49.480;20.016;2023-06-22T07:10:10;95320.47;;;24.80;100.00
54465;BME280;40374;49.480;20.016;2023-06-22T07:12:39;95308.31;;;24.81;100.00
54465;BME280;40374;49.480;20.016;2023-06-22T07:15:09;95295.28;;;24.97;100.00
54465;BME280;40374;49.480;20.016;2023-06-22T07:17:39;95292.41;;;25.13;100.00
54465;BME280;40374;49.480;20.016;2023-06-22T07:20:09;95293.47;;;25.47;100.00
54465;BME280;40374;49.480;20.016;2023-06-22T07:22:42;95295.09;;;25.75;100.00
54465;BME280;40374;49.480;20.016;2023-06-22T07:25:10;95298.00;;;26.09;100.00
54465;BME280;40374;49.480;20.016;2023-06-22T07:28:08;95288.00;;;26.27;100.00
54465;BME280;40374;49.480;20.016;2023-06-22T07:30:35;95297.28;;;26.42;100.00
54465;BME280;40374;49.480;20.016;2023-06-22T07:33:02;95292.75;;;26.57;100.00
54465;BME280;40374;49.480;20.016;2023-06-22T07:35:35;95288.69;;;26.78;100.00
54465;BME280;40374;49.480;20.016;2023-06-22T07:38:03;95281.41;;;27.00;100.00
54465;BME280;40374;49.480;20.016;2023-06-22T07:40:32;95290.22;;;27.12;100.00
54465;BME280;40374;49.480;20.016;2023-06-22T07:43:02;95285.78;;;27.38;100.00
54465;BME280;40374;49.480;20.016;2023-06-22T07:45:30;95277.94;;;27.44;100.00
54465;BME280;40374;49.480;20.016;2023-06-22T07:48:01;95269.78;;;27.58;100.00
54465;BME280;40374;49.480;20.016;2023-06-22T07:50:28;95278.50;;;27.64;100.00
54465;BME280;40374;49.480;20.016;2023-06-22T07:52:57;95274.50;;;27.58;100.00
54465;BME280;40374;49.480;20.016;2023-06-22T07:55:24;95280.16;;;27.72;100.00
54465;BME280;40374;49.480;20.016;2023-06-22T07:57:52;95273.75;;;27.61;100.00
54465;BME280;40374;49.480;20.016;2023-06-22T08:00:21;95283.41;;;27.85;100.00
54465;BME280;40374;49.480;20.016;2023-06-22T08:02:48;95293.34;;;27.89;100.00
54465;BME280;40374;49.480;20.016;2023-06-22T08:05:16;95291.56;;;28.19;100.00
54465;BME280;40374;49.480;20.016;2023-06-22T08:07:49;95280.56;;;28.29;100.00
54465;BME280;40374;49.480;20.016;2023-06-22T08:10:17;95292.47;;;28.41;100.00
54465;BME280;40374;49.480;20.016;2023-06-22T08:12:45;95293.41;;;28.66;100.00
54465;BME280;40374;49.480;20.016;2023-06-22T08:15:14;95296.66;;;28.79;100.00
54465;BME280;40374;49.480;20.016;2023-06-22T08:17:43;95293.97;;;29.04;94.07
54465;BME280;40374;49.480;20.016;2023-06-22T08:20:11;95289.66;;;29.14;87.93
54465;BME280;40374;49.480;20.016;2023-06-22T08:22:42;95293.22;;;29.14;94.29
54465;BME280;40374;49.480;20.016;2023-06-22T08:25:10;95300.34;;;29.16;84.59
54465;BME280;40374;49.480;20.016;2023-06-22T08:27:38;95310.56;;;29.08;86.62
54465;BME280;40374;49.480;20.016;2023-06-22T08:30:07;95304.72;;;29.31;81.04
54465;BME280;40374;49.480;20.016;2023-06-22T08:32:35;95298.03;;;29.43;81.07
54465;BME280;40374;49.480;20.016;2023-06-22T08:35:02;95296.03;;;29.40;78.13
54465;BME280;40374;49.480;20.016;2023-06-22T08:37:32;95297.63;;;29.59;81.16
54465;BME280;40374;49.480;20.016;2023-06-22T08:40:05;95300.06;;;29.71;73.84
54465;BME280;40374;49.480;20.016;2023-06-22T08:42:36;95298.47;;;29.70;72.78
54465;BME280;40374;49.480;20.016;2023-06-22T08:45:04;95304.75;;;29.45;65.79
54465;BME280;40374;49.480;20.016;2023-06-22T08:47:32;95293.25;;;29.25;74.79
54465;BME280;40374;49.480;20.016;2023-06-22T08:49:59;95288.53;;;29.37;78.13
54465;BME280;40374;49.480;20.016;2023-06-22T08:52:31;95300.88;;;29.71;79.89
54465;BME280;40374;49.480;20.016;2023-06-22T08:54:58;95304.03;;;29.81;65.39
54465;BME280;40374;49.480;20.016;2023-06-22T08:57:27;95291.34;;;29.76;72.13
54465;BME280;40374;49.480;20.016;2023-06-22T08:59:54;95293.31;;;29.79;63.68
54465;BME280;40374;49.480;20.016;2023-06-22T09:02:27;95286.59;;;29.94;72.98
54465;BME280;40374;49.480;20.016;2023-06-22T09:04:58;95286.56;;;30.30;74.88
54465;BME280;40374;49.480;20.016;2023-06-22T09:07:27;95292.41;;;30.61;68.09
54465;BME280;40374;49.480;20.016;2023-06-22T09:09:55;95288.03;;;30.64;70.79
54465;BME280;40374;49.480;20.016;2023-06-22T09:12:23;95303.88;;;30.78;67.48
54465;BME280;40374;49.480;20.016;2023-06-22T09:14:54;95299.06;;;30.96;69.42
54465;BME280;40374;49.480;20.016;2023-06-22T09:17:22;95281.63;;;30.92;67.42
54465;BME280;40374;49.480;20.016;2023-06-22T09:19:49;95303.78;;;31.06;66.93
54465;BME280;40374;49.480;20.016;2023-06-22T09:22:17;95307.34;;;31.07;65.29
54465;BME280;40374;49.480;20.016;2023-06-22T09:24:45;95309.66;;;31.19;66.13
54465;BME280;40374;49.480;20.016;2023-06-22T09:27:13;95302.88;;;31.27;63.81
54465;BME280;40374;49.480;20.016;2023-06-22T09:29:40;95297.59;;;31.47;60.69
54465;BME280;40374;49.480;20.016;2023-06-22T09:32:08;95290.78;;;31.55;61.57
54465;BME280;40374;49.480;20.016;2023-06-22T09:34:35;95276.03;;;31.62;59.52
54465;BME280;40374;49.480;20.016;2023-06-22T09:37:04;95280.59;;;31.90;60.15
54465;BME280;40374;49.480;20.016;2023-06-22T09:39:32;95278.84;;;32.11;60.24
54465;BME280;40374;49.480;20.016;2023-06-22T09:42:00;95282.66;;;32.28;58.98
54465;BME280;40374;49.480;20.016;2023-06-22T09:44:27;95275.84;;;32.32;57.61
54465;BME280;40374;49.480;20.016;2023-06-22T09:46:55;95286.34;;;32.59;59.63
54465;BME280;40374;49.480;20.016;2023-06-22T09:49:23;95297.59;;;32.83;56.88
54465;BME280;40374;49.480;20.016;2023-06-22T09:52:10;95288.06;;;33.14;57.64
54465;BME280;40374;49.480;20.016;2023-06-22T09:54:38;95294.81;;;33.44;55.97
54465;BME280;40374;49.480;20.016;2023-06-22T09:57:06;95291.47;;;33.26;54.32
54465;BME280;40374;49.480;20.016;2023-06-22T09:59:33;95290.69;;;33.52;54.80
54465;BME280;40374;49.480;20.016;2023-06-22T10:02:01;95298.03;;;33.70;54.48
54465;BME280;40374;49.480;20.016;2023-06-22T10:04:29;95296.22;;;33.83;55.19
54465;BME280;40374;49.480;20.016;2023-06-22T10:06:57;95283.69;;;33.68;53.20
54465;BME280;40374;49.480;20.016;2023-06-22T10:09:25;95288.91;;;33.39;53.84
54465;BME280;40374;49.480;20.016;2023-06-22T10:11:53;95285.72;;;33.36;54.33
54465;BME280;40374;49.480;20.016;2023-06-22T10:14:23;95285.16;;;33.22;55.52
54465;BME280;40374;49.480;20.016;2023-06-22T10:16:52;95282.25;;;32.98;54.54
54465;BME280;40374;49.480;20.016;2023-06-22T10:19:20;95282.56;;;32.73;54.38
54465;BME280;40374;49.480;20.016;2023-06-22T10:21:48;95275.47;;;32.68;57.40
54465;BME280;40374;49.480;20.016;2023-06-22T10:24:15;95280.88;;;33.13;56.34
54465;BME280;40374;49.480;20.016;2023-06-22T10:26:43;95276.69;;;33.56;56.46
54465;BME280;40374;49.480;20.016;2023-06-22T10:29:10;95274.88;;;33.96;55.64
54465;BME280;40374;49.480;20.016;2023-06-22T10:31:44;95288.91;;;34.16;52.42
54465;BME280;40374;49.480;20.016;2023-06-22T10:34:11;95279.53;;;34.27;52.83
54465;BME280;40374;49.480;20.016;2023-06-22T10:36:39;95277.38;;;34.58;50.64
54465;BME280;40374;49.480;20.016;2023-06-22T10:39:06;95282.25;;;34.94;47.94
54465;BME280;40374;49.480;20.016;2023-06-22T10:41:35;95289.47;;;35.31;50.39
54465;BME280;40374;49.480;20.016;2023-06-22T10:44:02;95288.25;;;36.02;49.51
54465;BME280;40374;49.480;20.016;2023-06-22T10:46:30;95271.38;;;36.51;47.68
54465;BME280;40374;49.480;20.016;2023-06-22T10:48:58;95266.84;;;36.99;47.08
54465;BME280;40374;49.480;20.016;2023-06-22T10:51:26;95270.97;;;37.49;48.25
54465;BME280;40374;49.480;20.016;2023-06-22T10:53:55;95269.03;;;37.97;45.44
54465;BME280;40374;49.480;20.016;2023-06-22T10:56:23;95269.19;;;38.42;45.11
54465;BME280;40374;49.480;20.016;2023-06-22T10:58:50;95267.34;;;39.05;43.60
54465;BME280;40374;49.480;20.016;2023-06-22T11:01:21;95261.97;;;39.51;42.35
54465;BME280;40374;49.480;20.016;2023-06-22T11:04:02;95266.78;;;39.41;40.79
54465;BME280;40374;49.480;20.016;2023-06-22T11:06:31;95261.03;;;39.54;41.25
54465;BME280;40374;49.480;20.016;2023-06-22T11:08:58;95258.09;;;39.57;38.83
54465;BME280;40374;49.480;20.016;2023-06-22T11:11:32;95250.53;;;39.86;41.03
54465;BME280;40374;49.480;20.016;2023-06-22T11:14:00;95252.66;;;40.31;39.65
54465;BME280;40374;49.480;20.016;2023-06-22T11:16:28;95250.31;;;40.67;40.32
54465;BME280;40374;49.480;20.016;2023-06-22T11:18:56;95240.44;;;40.90;40.02
54465;BME280;40374;49.480;20.016;2023-06-22T11:21:23;95244.72;;;41.37;38.08
54465;BME280;40374;49.480;20.016;2023-06-22T11:23:51;95241.69;;;41.59;37.28
54465;BME280;40374;49.480;20.016;2023-06-22T11:26:18;95239.09;;;42.04;37.99
54465;BME280;40374;49.480;20.016;2023-06-22T11:28:46;95232.13;;;42.38;36.55
54465;BME280;40374;49.480;20.016;2023-06-22T11:31:14;95229.78;;;42.36;35.15
54465;BME280;40374;49.480;20.016;2023-06-22T11:33:52;95222.94;;;42.04;33.53
54465;BME280;40374;49.480;20.016;2023-06-22T11:36:20;95230.44;;;40.80;35.67
54465;BME280;40374;49.480;20.016;2023-06-22T11:38:47;95232.88;;;41.05;36.17
54465;BME280;40374;49.480;20.016;2023-06-22T11:41:15;95224.56;;;41.53;36.75
54465;BME280;40374;49.480;20.016;2023-06-22T11:43:42;95230.72;;;41.85;35.88
54465;BME280;40374;49.480;20.016;2023-06-22T11:46:10;95221.75;;;41.87;35.36
54465;BME280;40374;49.480;20.016;2023-06-22T11:48:38;95215.00;;;42.17;35.38
54465;BME280;40374;49.480;20.016;2023-06-22T11:51:06;95223.94;;;42.40;35.31
54465;BME280;40374;49.480;20.016;2023-06-22T11:53:35;95221.16;;;42.55;33.01
54465;BME280;40374;49.480;20.016;2023-06-22T11:56:03;95222.16;;;42.04;32.73
54465;BME280;40374;49.480;20.016;2023-06-22T11:58:30;95203.06;;;41.13;34.12
54465;BME280;40374;49.480;20.016;2023-06-22T12:00:58;95204.50;;;41.18;36.41
54465;BME280;40374;49.480;20.016;2023-06-22T12:03:25;95210.75;;;41.55;35.71
54465;BME280;40374;49.480;20.016;2023-06-22T12:05:53;95210.28;;;41.90;35.25
54465;BME280;40374;49.480;20.016;2023-06-22T12:08:21;95205.50;;;42.06;35.50
54465;BME280;40374;49.480;20.016;2023-06-22T12:10:50;95206.63;;;42.23;35.09
54465;BME280;40374;49.480;20.016;2023-06-22T12:13:17;95202.50;;;42.48;35.24
54465;BME280;40374;49.480;20.016;2023-06-22T12:15:45;95206.13;;;42.49;34.14
54465;BME280;40374;49.480;20.016;2023-06-22T12:18:12;95200.59;;;42.69;34.97
54465;BME280;40374;49.480;20.016;2023-06-22T12:20:42;95210.97;;;43.02;34.88
54465;BME280;40374;49.480;20.016;2023-06-22T12:23:10;95211.06;;;43.08;35.11
54465;BME280;40374;49.480;20.016;2023-06-22T12:25:37;95207.94;;;43.21;33.71
54465;BME280;40374;49.480;20.016;2023-06-22T12:28:05;95200.50;;;43.38;34.13
54465;BME280;40374;49.480;20.016;2023-06-22T12:30:33;95200.25;;;43.71;33.13
54465;BME280;40374;49.480;20.016;2023-06-22T12:33:00;95200.16;;;44.01;32.74
54465;BME280;40374;49.480;20.016;2023-06-22T12:35:28;95198.13;;;44.22;32.74
54465;BME280;40374;49.480;20.016;2023-06-22T12:37:55;95202.38;;;44.12;31.65
54465;BME280;40374;49.480;20.016;2023-06-22T12:40:23;95201.69;;;43.82;32.09
54465;BME280;40374;49.480;20.016;2023-06-22T12:42:51;95195.88;;;43.91;32.39
54465;BME280;40374;49.480;20.016;2023-06-22T12:45:19;95190.94;;;43.21;32.34
54465;BME280;40374;49.480;20.016;2023-06-22T12:47:48;95198.28;;;43.12;33.04
54465;BME280;40374;49.480;20.016;2023-06-22T12:50:17;95194.66;;;43.42;33.05
54465;BME280;40374;49.480;20.016;2023-06-22T12:52:45;95185.47;;;43.17;32.15
54465;BME280;40374;49.480;20.016;2023-06-22T12:55:13;95184.53;;;43.05;32.91
54465;BME280;40374;49.480;20.016;2023-06-22T12:57:40;95185.50;;;42.87;32.29
54465;BME280;40374;49.480;20.016;2023-06-22T13:00:08;95182.84;;;43.13;33.31
54465;BME280;40374;49.480;20.016;2023-06-22T13:02:39;95176.19;;;43.46;32.06
54465;BME280;40374;49.480;20.016;2023-06-22T13:05:07;95165.53;;;43.56;32.37
54465;BME280;40374;49.480;20.016;2023-06-22T13:07:35;95171.66;;;43.69;31.51
54465;BME280;40374;49.480;20.016;2023-06-22T13:10:03;95164.91;;;43.67;32.06